sensor_id;sensor_type;location;lat;lon;timestamp;pressure;altitude;pressure_sealevel;temperature;humidity
66681;BME280;53575;51.366;12.350;2023-03-11T00:00:07;97982.00;;;0.53;100.00
66681;BME280;53575;51.366;12.350;2023-03-11T00:02:38;98016.28;;;0.52;100.00
66681;BME280;53575;51.366;12.350;2023-03-11T00:05:05;98018.88;;;0.47;100.00
66681;BME280;53575;51.366;12.350;2023-03-11T00:07:31;98013.75;;;0.43;100.00
66681;BME280;53575;51.366;12.350;2023-03-11T00:09:56;98018.88;;;0.43;100.00
66681;BME280;53575;51.366;12.350;2023-03-11T00:12:21;98046.25;;;0.48;100.00
66681;BME280;53575;51.366;12.350;2023-03-11T00:14:47;98052.28;;;0.40;100.00
66681;BME280;53575;51.366;12.350;2023-03-11T00:17:12;98054.88;;;0.35;100.00
66681;BME280;53575;51.366;12.350;2023-03-11T00:19:37;98070.28;;;0.38;100.00
66681;BME280;53575;51.366;12.350;2023-03-11T00:22:03;98076.25;;;0.34;100.00
66681;BME280;53575;51.366;12.350;2023-03-11T00:24:28;98109.66;;;0.36;100.00
66681;BME280;53575;51.366;12.350;2023-03-11T00:26:54;98096.84;;;0.31;100.00
66681;BME280;53575;51.366;12.350;2023-03-11T00:29:19;98097.66;;;0.33;100.00
66681;BME280;53575;51.366;12.350;2023-03-11T00:31:44;98097.69;;;0.29;100.00
66681;BME280;53575;51.366;12.350;2023-03-11T00:34:10;98107.97;;;0.27;100.00
66681;BME280;53575;51.366;12.350;2023-03-11T00:36:35;98114.81;;;0.25;100.00
66681;BME280;53575;51.366;12.350;2023-03-11T00:39:02;98155.03;;;0.21;100.00
66681;BME280;53575;51.366;12.350;2023-03-11T00:41:31;98128.50;;;0.22;100.00
66681;BME280;53575;51.366;12.350;2023-03-11T00:43:57;98149.94;;;0.23;100.00
66681;BME280;53575;51.366;12.350;2023-03-11T00:46:22;98167.03;;;0.18;100.00
66681;BME280;53575;51.366;12.350;2023-03-11T00:48:50;98161.88;;;0.18;100.00
66681;BME280;53575;51.366;12.350;2023-03-11T00:51:15;98170.47;;;0.21;100.00
66681;BME280;53575;51.366;12.350;2023-03-11T00:53:41;98168.75;;;0.17;100.00
66681;BME280;53575;51.366;12.350;2023-03-11T00:56:11;98179.88;;;0.13;100.00
66681;BME280;53575;51.366;12.350;2023-03-11T00:58:38;98196.97;;;0.14;100.00
66681;BME280;53575;51.366;12.350;2023-03-11T01:01:11;98197.84;;;0.12;100.00
66681;BME280;53575;51.366;12.350;2023-03-11T01:03:37;98208.97;;;0.12;100.00
66681;BME280;53575;51.366;12.350;2023-03-11T01:06:03;98213.25;;;0.12;100.00
66681;BME280;53575;51.366;12.350;2023-03-11T01:08:29;98220.09;;;0.08;100.00
66681;BME280;53575;51.366;12.350;2023-03-11T01:10:56;98227.78;;;0.07;100.00
66681;BME280;53575;51.366;12.350;2023-03-11T01:13:22;98243.19;;;0.04;100.00
66681;BME280;53575;51.366;12.350;2023-03-11T01:15:47;98270.59;;;0.08;100.00
66681;BME280;53575;51.366;12.350;2023-03-11T01:18:13;98256.88;;;0.07;100.00
66681;BME280;53575;51.366;12.350;2023-03-11T01:20:39;98271.44;;;0.05;100.00
66681;BME280;53575;51.366;12.350;2023-03-11T01:23:08;98277.41;;;0.03;100.00
66681;BME280;53575;51.366;12.350;2023-03-11T01:25:34;98272.31;;;0.06;100.00
66681;BME280;53575;51.366;12.350;2023-03-11T01:28:00;98289.41;;;0.02;100.00
66681;BME280;53575;51.366;12.350;2023-03-11T01:30:26;98304.81;;;0.04;100.00
66681;BME280;53575;51.366;12.350;2023-03-11T01:32:53;98294.53;;;0.04;100.00
66681;BME280;53575;51.366;12.350;2023-03-11T01:35:21;98301.41;;;0.06;100.00
66681;BME280;53575;51.366;12.350;2023-03-11T01:37:47;98301.41;;;0.09;100.00
66681;BME280;53575;51.366;12.350;2023-03-11T01:40:37;98322.78;;;0.02;100.00
66681;BME280;53575;51.366;12.350;2023-03-11T01:43:05;98333.91;;;-0.02;100.00
66681;BME280;53575;51.366;12.350;2023-03-11T01:48:28;98331.34;;;0.01;100.00
66681;BME280;53575;51.366;12.350;2023-03-11T01:50:55;98404.13;;;0.05;100.00
66681;BME280;53575;51.366;12.350;2023-03-11T01:53:21;98365.59;;;0.00;100.00
66681;BME280;53575;51.366;12.350;2023-03-11T01:55:48;98382.69;;;0.01;100.00
66681;BME280;53575;51.366;12.350;2023-03-11T01:58:20;98412.63;;;-0.03;100.00
66681;BME280;53575;51.366;12.350;2023-03-11T02:00:47;98402.34;;;-0.07;100.00
66681;BME280;53575;51.366;12.350;2023-03-11T02:03:24;98425.47;;;-0.01;100.00
66681;BME280;53575;51.366;12.350;2023-03-11T02:05:52;98421.19;;;-0.02;100.00
66681;BME280;53575;51.366;12.350;2023-03-11T02:08:18;98456.28;;;-0.03;100.00
66681;BME280;53575;51.366;12.350;2023-03-11T02:10:44;98449.44;;;-0.04;100.00
66681;BME280;53575;51.366;12.350;2023-03-11T02:13:11;98474.22;;;-0.04;100.00
66681;BME280;53575;51.366;12.350;2023-03-11T02:15:36;98453.69;;;-0.04;100.00
66681;BME280;53575;51.366;12.350;2023-03-11T02:18:04;98459.72;;;-0.04;100.00
66681;BME280;53575;51.366;12.350;2023-03-11T02:20:53;98488.75;;;-0.08;100.00
66681;BME280;53575;51.366;12.350;2023-03-11T02:23:27;98465.66;;;-0.11;100.00
66681;BME280;53575;51.366;12.350;2023-03-11T02:26:08;98501.59;;;-0.08;100.00
66681;BME280;53575;51.366;12.350;2023-03-11T02:28:37;98493.06;;;-0.07;100.00
66681;BME280;53575;51.366;12.350;2023-03-11T02:31:05;98511.03;;;-0.07;100.00
66681;BME280;53575;51.366;12.350;2023-03-11T02:33:31;98515.31;;;-0.06;100.00
66681;BME280;53575;51.366;12.350;2023-03-11T02:35:57;98525.59;;;-0.07;100.00
66681;BME280;53575;51.366;12.350;2023-03-11T02:38:23;98557.28;;;-0.04;100.00
66681;BME280;53575;51.366;12.350;2023-03-11T02:40:58;98539.28;;;-0.05;100.00
66681;BME280;53575;51.366;12.350;2023-03-11T02:44:00;98571.81;;;-0.01;100.00
66681;BME280;53575;51.366;12.350;2023-03-11T02:46:18;98563.31;;;0.03;100.00
66681;BME280;53575;51.366;12.350;2023-03-11T02:48:44;98583.88;;;0.06;100.00
66681;BME280;53575;51.366;12.350;2023-03-11T02:51:11;98571.88;;;0.02;100.00
66681;BME280;53575;51.366;12.350;2023-03-11T02:53:47;98590.69;;;0.01;100.00
66681;BME280;53575;51.366;12.350;2023-03-11T02:56:13;98588.97;;;0.00;100.00
66681;BME280;53575;51.366;12.350;2023-03-11T02:58:39;98602.66;;;-0.01;100.00
66681;BME280;53575;51.366;12.350;2023-03-11T03:01:04;98618.09;;;0.01;100.00
66681;BME280;53575;51.366;12.350;2023-03-11T03:03:30;98614.66;;;0.00;100.00
66681;BME280;53575;51.366;12.350;2023-03-11T03:05:55;98622.31;;;-0.03;100.00
66681;BME280;53575;51.366;12.350;2023-03-11T03:08:21;98642.09;;;0.04;100.00
66681;BME280;53575;51.366;12.350;2023-03-11T03:10:46;98630.91;;;0.01;100.00
66681;BME280;53575;51.366;12.350;2023-03-11T03:13:12;98642.94;;;0.05;100.00
66681;BME280;53575;51.366;12.350;2023-03-11T03:15:37;98642.94;;;0.06;100.00
66681;BME280;53575;51.366;12.350;2023-03-11T03:18:03;98636.13;;;0.08;100.00
66681;BME280;53575;51.366;12.350;2023-03-11T03:20:28;98676.34;;;0.11;100.00
66681;BME280;53575;51.366;12.350;2023-03-11T03:22:54;98695.19;;;0.08;100.00
66681;BME280;53575;51.366;12.350;2023-03-11T03:25:19;98702.03;;;0.08;100.00
66681;BME280;53575;51.366;12.350;2023-03-11T03:27:46;98693.44;;;0.06;100.00
66681;BME280;53575;51.366;12.350;2023-03-11T03:30:12;98695.19;;;0.11;100.00
66681;BME280;53575;51.366;12.350;2023-03-11T03:32:37;98719.13;;;0.07;100.00
66681;BME280;53575;51.366;12.350;2023-03-11T03:35:03;98712.31;;;0.11;100.00
66681;BME280;53575;51.366;12.350;2023-03-11T03:37:32;98731.13;;;0.07;100.00
66681;BME280;53575;51.366;12.350;2023-03-11T03:39:57;98738.84;;;0.08;100.00
66681;BME280;53575;51.366;12.350;2023-03-11T03:42:23;98743.94;;;0.07;100.00
66681;BME280;53575;51.366;12.350;2023-03-11T03:44:50;98745.69;;;0.08;100.00
66681;BME280;53575;51.366;12.350;2023-03-11T03:47:16;98751.66;;;0.05;100.00
66681;BME280;53575;51.366;12.350;2023-03-11T03:49:41;98758.56;;;0.11;100.00
66681;BME280;53575;51.366;12.350;2023-03-11T03:52:07;98773.13;;;0.12;100.00
66681;BME280;53575;51.366;12.350;2023-03-11T03:54:34;98766.22;;;0.06;100.00
66681;BME280;53575;51.366;12.350;2023-03-11T03:57:00;98774.84;;;0.13;100.00
66681;BME280;53575;51.366;12.350;2023-03-11T03:59:26;98775.72;;;0.12;100.00
66681;BME280;53575;51.366;12.350;2023-03-11T04:01:51;98775.72;;;0.13;100.00
66681;BME280;53575;51.366;12.350;2023-03-11T04:04:16;98786.78;;;0.11;100.00
66681;BME280;53575;51.366;12.350;2023-03-11T04:06:42;98803.09;;;0.13;100.00
66681;BME280;53575;51.366;12.350;2023-03-11T04:09:10;98800.44;;;0.05;100.00
66681;BME280;53575;51.366;12.350;2023-03-11T04:11:36;98804.69;;;0.03;100.00
66681;BME280;53575;51.366;12.350;2023-03-11T04:14:02;98814.16;;;0.06;100.00
66681;BME280;53575;51.366;12.350;2023-03-11T04:16:28;98852.66;;;0.04;100.00
66681;BME280;53575;51.366;12.350;2023-03-11T04:18:53;98819.25;;;0.01;100.00
66681;BME280;53575;51.366;12.350;2023-03-11T04:21:19;98824.38;;;0.03;100.00
66681;BME280;53575;51.366;12.350;2023-03-11T04:23:44;98815.00;;;0.06;100.00
66681;BME280;53575;51.366;12.350;2023-03-11T04:26:10;98834.69;;;0.06;100.00
66681;BME280;53575;51.366;12.350;2023-03-11T04:28:35;98836.38;;;0.04;100.00
66681;BME280;53575;51.366;12.350;2023-03-11T04:31:00;98839.84;;;0.06;100.00
66681;BME280;53575;51.366;12.350;2023-03-11T04:33:26;98854.44;;;0.10;100.00
66681;BME280;53575;51.366;12.350;2023-03-11T04:35:51;98849.28;;;0.08;100.00
66681;BME280;53575;51.366;12.350;2023-03-11T04:38:17;98862.13;;;0.10;100.00
66681;BME280;53575;51.366;12.350;2023-03-11T04:40:42;98862.09;;;0.07;100.00
66681;BME280;53575;51.366;12.350;2023-03-11T04:43:08;98870.75;;;0.12;100.00
66681;BME280;53575;51.366;12.350;2023-03-11T04:45:33;98871.50;;;0.06;100.00
66681;BME280;53575;51.366;12.350;2023-03-11T04:48:00;98883.53;;;0.09;100.00
66681;BME280;53575;51.366;12.350;2023-03-11T04:50:26;98893.81;;;0.09;100.00
66681;BME280;53575;51.366;12.350;2023-03-11T04:52:51;98892.09;;;0.11;100.00
66681;BME280;53575;51.366;12.350;2023-03-11T04:55:17;98898.09;;;0.10;100.00
66681;BME280;53575;51.366;12.350;2023-03-11T04:57:43;98913.50;;;0.10;100.00
66681;BME280;53575;51.366;12.350;2023-03-11T05:00:10;98892.97;;;0.11;100.00
66681;BME280;53575;51.366;12.350;2023-03-11T05:02:37;98896.38;;;0.10;100.00
66681;BME280;53575;51.366;12.350;2023-03-11T05:05:04;98912.69;;;0.12;100.00
66681;BME280;53575;51.366;12.350;2023-03-11T05:07:30;98923.78;;;0.10;100.00
66681;BME280;53575;51.366;12.350;2023-03-11T05:09:55;98906.66;;;0.10;100.00
66681;BME280;53575;51.366;12.350;2023-03-11T05:12:21;98915.22;;;0.11;100.00
66681;BME280;53575;51.366;12.350;2023-03-11T05:14:46;98917.78;;;0.11;100.00
66681;BME280;53575;51.366;12.350;2023-03-11T05:17:12;98923.06;;;0.20;100.00
66681;BME280;53575;51.366;12.350;2023-03-11T05:19:39;98932.44;;;0.18;100.00
66681;BME280;53575;51.366;12.350;2023-03-11T05:22:05;98932.44;;;0.18;100.00
66681;BME280;53575;51.366;12.350;2023-03-11T05:24:31;98941.03;;;0.20;100.00
66681;BME280;53575;51.366;12.350;2023-03-11T05:26:56;98946.28;;;0.28;100.00
66681;BME280;53575;51.366;12.350;2023-03-11T05:29:22;98948.75;;;0.20;100.00
66681;BME280;53575;51.366;12.350;2023-03-11T05:31:48;98961.66;;;0.26;100.00
66681;BME280;53575;51.366;12.350;2023-03-11T05:34:14;98950.53;;;0.26;100.00
66681;BME280;53575;51.366;12.350;2023-03-11T05:36:40;98961.66;;;0.26;100.00
66681;BME280;53575;51.366;12.350;2023-03-11T05:39:05;98961.66;;;0.26;100.00
66681;BME280;53575;51.366;12.350;2023-03-11T05:41:31;98978.84;;;0.30;100.00
66681;BME280;53575;51.366;12.350;2023-03-11T05:43:56;98978.94;;;0.35;100.00
66681;BME280;53575;51.366;12.350;2023-03-11T05:46:22;98985.63;;;0.25;100.00
66681;BME280;53575;51.366;12.350;2023-03-11T05:48:47;98980.59;;;0.31;100.00
66681;BME280;53575;51.366;12.350;2023-03-11T05:51:13;98982.31;;;0.32;100.00
66681;BME280;53575;51.366;12.350;2023-03-11T05:53:41;98985.75;;;0.34;100.00
66681;BME280;53575;51.366;12.350;2023-03-11T05:56:13;98997.63;;;0.26;100.00
66681;BME280;53575;51.366;12.350;2023-03-11T05:58:38;99001.84;;;0.21;100.00
66681;BME280;53575;51.366;12.350;2023-03-11T06:01:10;99006.06;;;0.17;100.00
66681;BME280;53575;51.366;12.350;2023-03-11T06:03:37;99012.13;;;0.21;100.00
66681;BME280;53575;51.366;12.350;2023-03-11T06:06:04;99024.22;;;0.30;100.00
66681;BME280;53575;51.366;12.350;2023-03-11T06:08:30;99030.28;;;0.33;100.00
66681;BME280;53575;51.366;12.350;2023-03-11T06:11:17;99032.78;;;0.27;100.00
66681;BME280;53575;51.366;12.350;2023-03-11T06:13:42;99049.00;;;0.23;100.00
66681;BME280;53575;51.366;12.350;2023-03-11T06:16:08;99054.94;;;0.22;100.00
66681;BME280;53575;51.366;12.350;2023-03-11T06:18:33;99036.22;;;0.28;100.00
66681;BME280;53575;51.366;12.350;2023-03-11T06:21:00;99037.94;;;0.29;100.00
66681;BME280;53575;51.366;12.350;2023-03-11T06:23:26;99042.16;;;0.27;100.00
66681;BME280;53575;51.366;12.350;2023-03-11T06:26:03;99056.75;;;0.28;100.00
66681;BME280;53575;51.366;12.350;2023-03-11T06:28:29;99055.75;;;0.18;100.00
66681;BME280;53575;51.366;12.350;2023-03-11T06:30:55;99065.34;;;0.30;100.00
66681;BME280;53575;51.366;12.350;2023-03-11T06:33:22;99071.38;;;0.33;100.00
66681;BME280;53575;51.366;12.350;2023-03-11T06:35:58;99066.97;;;0.23;100.00
66681;BME280;53575;51.366;12.350;2023-03-11T06:38:23;99067.03;;;0.28;100.00
66681;BME280;53575;51.366;12.350;2023-03-11T06:40:49;99082.41;;;0.26;100.00
66681;BME280;53575;51.366;12.350;2023-03-11T06:43:14;99078.34;;;0.39;100.00
66681;BME280;53575;51.366;12.350;2023-03-11T06:45:40;99101.38;;;0.33;100.00
66681;BME280;53575;51.366;12.350;2023-03-11T06:48:05;99101.41;;;0.37;100.00
66681;BME280;53575;51.366;12.350;2023-03-11T06:50:31;99116.03;;;0.38;100.00
66681;BME280;53575;51.366;12.350;2023-03-11T06:52:56;99113.34;;;0.34;100.00
66681;BME280;53575;51.366;12.350;2023-03-11T06:55:22;99121.06;;;0.32;100.00
66681;BME280;53575;51.366;12.350;2023-03-11T06:57:47;99114.22;;;0.34;100.00
66681;BME280;53575;51.366;12.350;2023-03-11T07:00:14;99119.47;;;0.40;100.00
66681;BME280;53575;51.366;12.350;2023-03-11T07:02:40;99123.69;;;0.37;100.00
66681;BME280;53575;51.366;12.350;2023-03-11T07:05:06;99137.28;;;0.28;100.00
66681;BME280;53575;51.366;12.350;2023-03-11T07:07:31;99133.03;;;0.32;100.00
66681;BME280;53575;51.366;12.350;2023-03-11T07:09:57;99144.25;;;0.35;100.00
66681;BME280;53575;51.366;12.350;2023-03-11T07:12:23;99149.50;;;0.43;100.00
66681;BME280;53575;51.366;12.350;2023-03-11T07:14:54;99162.53;;;0.57;100.00
66681;BME280;53575;51.366;12.350;2023-03-11T07:17:20;99167.50;;;0.43;100.00
66681;BME280;53575;51.366;12.350;2023-03-11T07:19:45;99174.34;;;0.42;100.00
66681;BME280;53575;51.366;12.350;2023-03-11T07:22:10;99171.00;;;0.49;100.00
66681;BME280;53575;51.366;12.350;2023-03-11T07:24:36;99178.59;;;0.42;100.00
66681;BME280;53575;51.366;12.350;2023-03-11T07:27:01;99182.31;;;0.59;100.00
66681;BME280;53575;51.366;12.350;2023-03-11T07:29:27;99180.66;;;0.63;100.00
66681;BME280;53575;51.366;12.350;2023-03-11T07:31:52;99198.63;;;0.63;99.91
66681;BME280;53575;51.366;12.350;2023-03-11T07:34:17;99197.72;;;0.58;100.00
66681;BME280;53575;51.366;12.350;2023-03-11T07:36:43;99208.75;;;0.52;100.00
66681;BME280;53575;51.366;12.350;2023-03-11T07:39:13;99201.22;;;0.63;100.00
66681;BME280;53575;51.366;12.350;2023-03-11T07:41:39;99215.97;;;0.76;100.00
66681;BME280;53575;51.366;12.350;2023-03-11T07:44:05;99215.09;;;0.76;100.00
66681;BME280;53575;51.366;12.350;2023-03-11T07:46:31;99227.09;;;0.75;99.69
66681;BME280;53575;51.366;12.350;2023-03-11T07:48:57;99224.53;;;0.73;100.00
66681;BME280;53575;51.366;12.350;2023-03-11T07:51:25;99228.94;;;0.81;100.00
66681;BME280;53575;51.366;12.350;2023-03-11T07:53:52;99224.69;;;0.84;100.00
66681;BME280;53575;51.366;12.350;2023-03-11T07:56:19;99238.44;;;0.86;100.00
66681;BME280;53575;51.366;12.350;2023-03-11T07:58:45;99242.81;;;0.92;100.00
66681;BME280;53575;51.366;12.350;2023-03-11T08:01:13;99242.84;;;0.95;99.77
66681;BME280;53575;51.366;12.350;2023-03-11T08:03:46;99262.78;;;1.10;99.24
66681;BME280;53575;51.366;12.350;2023-03-11T08:06:18;99240.59;;;1.15;98.84
66681;BME280;53575;51.366;12.350;2023-03-11T08:08:46;99270.53;;;1.11;98.79
66681;BME280;53575;51.366;12.350;2023-03-11T08:11:12;99249.84;;;1.05;99.02
66681;BME280;53575;51.366;12.350;2023-03-11T08:13:39;99267.28;;;1.23;99.21
66681;BME280;53575;51.366;12.350;2023-03-11T08:16:06;99280.84;;;1.13;98.02
66681;BME280;53575;51.366;12.350;2023-03-11T08:18:32;99270.50;;;1.10;98.04
66681;BME280;53575;51.366;12.350;2023-03-11T08:21:03;99289.53;;;1.19;97.96
66681;BME280;53575;51.366;12.350;2023-03-11T08:23:28;99304.13;;;1.22;97.93
66681;BME280;53575;51.366;12.350;2023-03-11T08:25:54;99290.22;;;1.08;97.72
66681;BME280;53575;51.366;12.350;2023-03-11T08:28:19;99305.47;;;0.97;99.42
66681;BME280;53575;51.366;12.350;2023-03-11T08:30:44;99301.25;;;1.01;98.33
66681;BME280;53575;51.366;12.350;2023-03-11T08:33:10;99302.03;;;0.96;97.09
66681;BME280;53575;51.366;12.350;2023-03-11T08:35:35;99315.88;;;1.05;96.69
66681;BME280;53575;51.366;12.350;2023-03-11T08:38:01;99308.06;;;0.98;96.05
66681;BME280;53575;51.366;12.350;2023-03-11T08:40:27;99312.53;;;1.10;96.18
66681;BME280;53575;51.366;12.350;2023-03-11T08:42:54;99309.81;;;1.00;95.72
66681;BME280;53575;51.366;12.350;2023-03-11T08:45:19;99327.91;;;1.06;96.84
66681;BME280;53575;51.366;12.350;2023-03-11T08:47:45;99327.34;;;1.25;95.67
66681;BME280;53575;51.366;12.350;2023-03-11T08:50:13;99322.19;;;1.25;94.17
66681;BME280;53575;51.366;12.350;2023-03-11T08:52:39;99327.53;;;1.37;94.04
66681;BME280;53575;51.366;12.350;2023-03-11T08:55:05;99336.19;;;1.42;93.45
66681;BME280;53575;51.366;12.350;2023-03-11T08:57:33;99349.72;;;1.29;92.26
66681;BME280;53575;51.366;12.350;2023-03-11T08:59:58;99339.91;;;1.07;91.99
66681;BME280;53575;51.366;12.350;2023-03-11T09:02:24;99348.41;;;1.03;93.16
66681;BME280;53575;51.366;12.350;2023-03-11T09:04:50;99349.63;;;1.23;92.67
66681;BME280;53575;51.366;12.350;2023-03-11T09:07:15;99369.19;;;1.12;91.85
66681;BME280;53575;51.366;12.350;2023-03-11T09:09:41;99368.44;;;1.19;91.59
66681;BME280;53575;51.366;12.350;2023-03-11T09:12:07;99358.34;;;1.31;91.21
66681;BME280;53575;51.366;12.350;2023-03-11T09:14:32;99378.25;;;1.44;90.11
66681;BME280;53575;51.366;12.350;2023-03-11T09:16:59;99373.03;;;1.38;91.03
66681;BME280;53575;51.366;12.350;2023-03-11T09:19:25;99375.06;;;1.59;90.28
66681;BME280;53575;51.366;12.350;2023-03-11T09:21:50;99380.13;;;1.55;89.96
66681;BME280;53575;51.366;12.350;2023-03-11T09:24:16;99379.38;;;1.62;89.05
66681;BME280;53575;51.366;12.350;2023-03-11T09:26:41;99392.22;;;1.59;88.79
66681;BME280;53575;51.366;12.350;2023-03-11T09:29:06;99384.69;;;1.73;88.65
66681;BME280;53575;51.366;12.350;2023-03-11T09:31:32;99382.19;;;1.76;87.96
66681;BME280;53575;51.366;12.350;2023-03-11T09:33:57;99378.91;;;1.89;88.51
66681;BME280;53575;51.366;12.350;2023-03-11T09:36:23;99393.50;;;1.90;86.99
66681;BME280;53575;51.366;12.350;2023-03-11T09:38:49;99392.84;;;2.03;85.85
66681;BME280;53575;51.366;12.350;2023-03-11T09:52:33;99423.19;;;2.24;87.02
66681;BME280;53575;51.366;12.350;2023-03-11T09:55:04;99412.91;;;2.27;86.69
66681;BME280;53575;51.366;12.350;2023-03-11T09:57:33;99416.75;;;2.60;87.60
66681;BME280;53575;51.366;12.350;2023-03-11T10:00:04;99420.28;;;2.68;84.37
66681;BME280;53575;51.366;12.350;2023-03-11T10:02:30;99425.38;;;2.62;85.18
66681;BME280;53575;51.366;12.350;2023-03-11T10:07:37;99442.31;;;2.43;83.12
66681;BME280;53575;51.366;12.350;2023-03-11T10:10:04;99444.69;;;2.26;83.09
66681;BME280;53575;51.366;12.350;2023-03-11T10:15:59;99468.16;;;2.46;84.63
66681;BME280;53575;51.366;12.350;2023-03-11T10:18:46;99454.25;;;2.33;83.17
66681;BME280;53575;51.366;12.350;2023-03-11T10:21:26;99460.47;;;2.51;82.24
66681;BME280;53575;51.366;12.350;2023-03-11T10:26:50;99453.03;;;2.75;81.56
66681;BME280;53575;51.366;12.350;2023-03-11T10:32:41;99471.66;;;2.51;82.13
66681;BME280;53575;51.366;12.350;2023-03-11T10:35:13;99489.16;;;2.11;81.89
66681;BME280;53575;51.366;12.350;2023-03-11T10:37:44;99486.56;;;2.10;83.25
66681;BME280;53575;51.366;12.350;2023-03-11T10:40:23;99495.09;;;2.06;83.60
66681;BME280;53575;51.366;12.350;2023-03-11T10:42:50;99486.53;;;2.08;82.98
66681;BME280;53575;51.366;12.350;2023-03-11T10:45:18;99486.59;;;2.13;83.14
66681;BME280;53575;51.366;12.350;2023-03-11T10:47:47;99486.81;;;2.27;83.37
66681;BME280;53575;51.366;12.350;2023-03-11T10:50:15;99493.75;;;2.32;82.47
66681;BME280;53575;51.366;12.350;2023-03-11T10:53:12;99485.44;;;2.53;82.17
66681;BME280;53575;51.366;12.350;2023-03-11T10:55:47;99491.41;;;2.51;81.91
66681;BME280;53575;51.366;12.350;2023-03-11T10:58:19;99491.50;;;2.57;81.20
66681;BME280;53575;51.366;12.350;2023-03-11T11:00:45;99491.59;;;2.64;82.49
66681;BME280;53575;51.366;12.350;2023-03-11T11:03:23;99502.34;;;2.31;81.86
66681;BME280;53575;51.366;12.350;2023-03-11T11:06:20;99503.19;;;2.30;83.54
66681;BME280;53575;51.366;12.350;2023-03-11T11:08:45;99503.50;;;2.55;82.45
66681;BME280;53575;51.366;12.350;2023-03-11T11:11:23;99501.69;;;2.46;81.66
66681;BME280;53575;51.366;12.350;2023-03-11T11:13:56;99503.84;;;2.82;80.92
66681;BME280;53575;51.366;12.350;2023-03-11T11:16:22;99506.63;;;3.01;80.28
66681;BME280;53575;51.366;12.350;2023-03-11T11:21:42;99513.97;;;2.64;80.80
66681;BME280;53575;51.366;12.350;2023-03-11T11:29:38;99527.31;;;2.34;80.55
66681;BME280;53575;51.366;12.350;2023-03-11T11:32:30;99530.78;;;2.37;82.92
66681;BME280;53575;51.366;12.350;2023-03-11T11:35:02;99531.72;;;2.42;82.14
66681;BME280;53575;51.366;12.350;2023-03-11T11:37:32;99526.88;;;2.65;81.24
66681;BME280;53575;51.366;12.350;2023-03-11T11:42:43;99531.75;;;2.46;80.15
66681;BME280;53575;51.366;12.350;2023-03-11T11:45:21;99521.91;;;2.81;80.66
66681;BME280;53575;51.366;12.350;2023-03-11T11:47:51;99535.00;;;2.98;75.22
66681;BME280;53575;51.366;12.350;2023-03-11T11:50:47;99526.97;;;2.75;77.44
66681;BME280;53575;51.366;12.350;2023-03-11T11:53:27;99529.53;;;2.73;78.03
66681;BME280;53575;51.366;12.350;2023-03-11T11:55:55;99538.66;;;2.47;78.11
66681;BME280;53575;51.366;12.350;2023-03-11T11:58:21;99536.53;;;2.21;79.44
66681;BME280;53575;51.366;12.350;2023-03-11T12:04:00;99527.19;;;2.28;79.44
66681;BME280;53575;51.366;12.350;2023-03-11T12:06:56;99522.66;;;2.72;79.47
66681;BME280;53575;51.366;12.350;2023-03-11T12:15:24;99518.16;;;3.29;72.98
66681;BME280;53575;51.366;12.350;2023-03-11T12:17:34;99517.47;;;3.48;71.52
66681;BME280;53575;51.366;12.350;2023-03-11T12:20:07;99526.91;;;3.45;73.39
66681;BME280;53575;51.366;12.350;2023-03-11T12:28:22;99542.53;;;2.81;75.30
66681;BME280;53575;51.366;12.350;2023-03-11T12:31:02;99544.53;;;3.02;74.41
66681;BME280;53575;51.366;12.350;2023-03-11T12:33:35;99541.00;;;2.95;73.55
66681;BME280;53575;51.366;12.350;2023-03-11T12:36:02;99541.81;;;2.92;74.18
66681;BME280;53575;51.366;12.350;2023-03-11T12:38:34;99540.19;;;3.01;73.83
66681;BME280;53575;51.366;12.350;2023-03-11T12:41:06;99550.38;;;2.90;73.36
66681;BME280;53575;51.366;12.350;2023-03-11T12:45:59;99548.66;;;2.87;74.28
66681;BME280;53575;51.366;12.350;2023-03-11T12:50:54;99549.38;;;2.76;73.20
66681;BME280;53575;51.366;12.350;2023-03-11T12:53:48;99545.94;;;2.78;74.05
66681;BME280;53575;51.366;12.350;2023-03-11T13:09:19;99554.81;;;3.00;75.76
66681;BME280;53575;51.366;12.350;2023-03-11T13:11:46;99562.78;;;3.17;75.23
66681;BME280;53575;51.366;12.350;2023-03-11T13:14:29;99555.06;;;3.22;73.09
66681;BME280;53575;51.366;12.350;2023-03-11T13:17:25;99556.03;;;3.28;73.61
66681;BME280;53575;51.366;12.350;2023-03-11T13:19:59;99555.97;;;3.25;71.65
66681;BME280;53575;51.366;12.350;2023-03-11T13:25:31;99578.13;;;3.08;72.34
66681;BME280;53575;51.366;12.350;2023-03-11T13:28:14;99579.91;;;3.12;72.92
66681;BME280;53575;51.366;12.350;2023-03-11T13:34:12;99585.63;;;2.88;74.16
66681;BME280;53575;51.366;12.350;2023-03-11T13:42:45;99579.63;;;3.65;71.98
66681;BME280;53575;51.366;12.350;2023-03-11T13:45:32;99597.50;;;3.47;70.14
66681;BME280;53575;51.366;12.350;2023-03-11T13:48:43;99594.13;;;3.51;68.44
66681;BME280;53575;51.366;12.350;2023-03-11T13:53:58;99600.69;;;4.08;64.96
66681;BME280;53575;51.366;12.350;2023-03-11T13:56:43;99588.72;;;4.19;65.40
66681;BME280;53575;51.366;12.350;2023-03-11T14:01:51;99605.53;;;3.73;64.18
66681;BME280;53575;51.366;12.350;2023-03-11T14:04:32;99619.97;;;3.54;66.30
66681;BME280;53575;51.366;12.350;2023-03-11T14:06:58;99609.66;;;3.54;67.18
66681;BME280;53575;51.366;12.350;2023-03-11T14:09:26;99619.25;;;3.64;66.23
66681;BME280;53575;51.366;12.350;2023-03-11T14:11:54;99610.66;;;3.68;63.61
66681;BME280;53575;51.366;12.350;2023-03-11T14:14:50;99616.31;;;4.17;62.62
66681;BME280;53575;51.366;12.350;2023-03-11T14:17:15;99608.94;;;4.72;59.95
66681;BME280;53575;51.366;12.350;2023-03-11T14:19:42;99606.31;;;4.68;60.80
66681;BME280;53575;51.366;12.350;2023-03-11T14:22:08;99612.44;;;4.82;61.77
66681;BME280;53575;51.366;12.350;2023-03-11T14:24:34;99631.44;;;4.87;57.89
66681;BME280;53575;51.366;12.350;2023-03-11T14:27:02;99636.06;;;4.09;56.90